sensor_id;sensor_type;location;lat;lon;timestamp;P1;durP1;ratioP1;P2;durP2;ratioP2
40288;SDS011;28991;52.028;5.526;2023-06-22T00:02:13;0.60;;;0.60;;
40288;SDS011;28991;52.028;5.526;2023-06-22T00:04:38;0.57;;;0.57;;
40288;SDS011;28991;52.028;5.526;2023-06-22T00:07:04;0.57;;;0.35;;
40288;SDS011;28991;52.028;5.526;2023-06-22T00:09:30;0.43;;;0.43;;
40288;SDS011;28991;52.028;5.526;2023-06-22T00:11:56;0.70;;;0.60;;
40288;SDS011;28991;52.028;5.526;2023-06-22T00:14:22;0.52;;;0.40;;
40288;SDS011;28991;52.028;5.526;2023-06-22T00:16:47;0.57;;;0.55;;
40288;SDS011;28991;52.028;5.526;2023-06-22T00:19:14;0.85;;;0.60;;
40288;SDS011;28991;52.028;5.526;2023-06-22T00:21:40;0.60;;;0.57;;
40288;SDS011;28991;52.028;5.526;2023-06-22T00:24:06;0.75;;;0.50;;
40288;SDS011;28991;52.028;5.526;2023-06-22T00:26:31;0.50;;;0.50;;
40288;SDS011;28991;52.028;5.526;2023-06-22T00:28:57;0.50;;;0.50;;
40288;SDS011;28991;52.028;5.526;2023-06-22T00:31:22;0.40;;;0.40;;
40288;SDS011;28991;52.028;5.526;2023-06-22T00:33:48;0.40;;;0.40;;
40288;SDS011;28991;52.028;5.526;2023-06-22T00:36:15;0.50;;;0.50;;
40288;SDS011;28991;52.028;5.526;2023-06-22T00:38:42;0.40;;;0.40;;
40288;SDS011;28991;52.028;5.526;2023-06-22T00:41:08;0.80;;;0.70;;
40288;SDS011;28991;52.028;5.526;2023-06-22T00:43:34;0.47;;;0.47;;
40288;SDS011;28991;52.028;5.526;2023-06-22T00:46:00;0.50;;;0.50;;
40288;SDS011;28991;52.028;5.526;2023-06-22T00:48:28;0.40;;;0.40;;
40288;SDS011;28991;52.028;5.526;2023-06-22T00:50:54;0.45;;;0.45;;
40288;SDS011;28991;52.028;5.526;2023-06-22T00:53:20;0.50;;;0.50;;
40288;SDS011;28991;52.028;5.526;2023-06-22T00:55:46;0.30;;;0.30;;
40288;SDS011;28991;52.028;5.526;2023-06-22T00:58:16;0.60;;;0.60;;
40288;SDS011;28991;52.028;5.526;2023-06-22T01:00:46;0.60;;;0.50;;
40288;SDS011;28991;52.028;5.526;2023-06-22T01:03:12;0.40;;;0.40;;
40288;SDS011;28991;52.028;5.526;2023-06-22T01:05:38;0.57;;;0.50;;
40288;SDS011;28991;52.028;5.526;2023-06-22T01:11:06;0.70;;;0.70;;
40288;SDS011;28991;52.028;5.526;2023-06-22T01:16:23;0.60;;;0.60;;
40288;SDS011;28991;52.028;5.526;2023-06-22T01:19:00;0.85;;;0.50;;
40288;SDS011;28991;52.028;5.526;2023-06-22T01:21:34;0.73;;;0.73;;
40288;SDS011;28991;52.028;5.526;2023-06-22T01:24:04;0.60;;;0.55;;
40288;SDS011;28991;52.028;5.526;2023-06-22T01:26:47;0.70;;;0.60;;
40288;SDS011;28991;52.028;5.526;2023-06-22T01:29:24;0.70;;;0.50;;
40288;SDS011;28991;52.028;5.526;2023-06-22T01:31:53;0.50;;;0.50;;
40288;SDS011;28991;52.028;5.526;2023-06-22T01:34:21;0.47;;;0.47;;
40288;SDS011;28991;52.028;5.526;2023-06-22T01:36:47;0.77;;;0.63;;
40288;SDS011;28991;52.028;5.526;2023-06-22T01:39:13;0.80;;;0.60;;
40288;SDS011;28991;52.028;5.526;2023-06-22T01:41:40;0.70;;;0.60;;
40288;SDS011;28991;52.028;5.526;2023-06-22T01:44:07;0.38;;;0.38;;
40288;SDS011;28991;52.028;5.526;2023-06-22T01:46:34;0.70;;;0.70;;
40288;SDS011;28991;52.028;5.526;2023-06-22T01:49:01;0.60;;;0.60;;
40288;SDS011;28991;52.028;5.526;2023-06-22T01:51:28;0.40;;;0.40;;
40288;SDS011;28991;52.028;5.526;2023-06-22T01:53:53;0.60;;;0.57;;
40288;SDS011;28991;52.028;5.526;2023-06-22T01:56:19;0.50;;;0.50;;
40288;SDS011;28991;52.028;5.526;2023-06-22T01:58:48;0.50;;;0.50;;
40288;SDS011;28991;52.028;5.526;2023-06-22T02:01:20;0.60;;;0.60;;
40288;SDS011;28991;52.028;5.526;2023-06-22T02:03:52;0.55;;;0.55;;
40288;SDS011;28991;52.028;5.526;2023-06-22T02:06:36;0.60;;;0.60;;
40288;SDS011;28991;52.028;5.526;2023-06-22T02:09:06;0.50;;;0.50;;
40288;SDS011;28991;52.028;5.526;2023-06-22T02:11:37;0.52;;;0.52;;
40288;SDS011;28991;52.028;5.526;2023-06-22T02:14:05;0.60;;;0.60;;
40288;SDS011;28991;52.028;5.526;2023-06-22T02:16:32;0.50;;;0.50;;
40288;SDS011;28991;52.028;5.526;2023-06-22T02:18:58;0.60;;;0.50;;
40288;SDS011;28991;52.028;5.526;2023-06-22T02:21:31;0.50;;;0.50;;
40288;SDS011;28991;52.028;5.526;2023-06-22T02:23:57;0.68;;;0.68;;
40288;SDS011;28991;52.028;5.526;2023-06-22T02:26:24;0.90;;;0.60;;
40288;SDS011;28991;52.028;5.526;2023-06-22T02:28:50;0.40;;;0.40;;
40288;SDS011;28991;52.028;5.526;2023-06-22T02:31:16;0.50;;;0.50;;
40288;SDS011;28991;52.028;5.526;2023-06-22T02:33:42;0.98;;;0.60;;
40288;SDS011;28991;52.028;5.526;2023-06-22T02:36:08;0.57;;;0.57;;
40288;SDS011;28991;52.028;5.526;2023-06-22T02:38:37;0.52;;;0.52;;
40288;SDS011;28991;52.028;5.526;2023-06-22T02:41:03;0.60;;;0.60;;
40288;SDS011;28991;52.028;5.526;2023-06-22T02:43:28;0.52;;;0.52;;
40288;SDS011;28991;52.028;5.526;2023-06-22T02:45:54;0.57;;;0.50;;
40288;SDS011;28991;52.028;5.526;2023-06-22T02:48:20;0.57;;;0.55;;
40288;SDS011;28991;52.028;5.526;2023-06-22T02:50:46;0.43;;;0.43;;
40288;SDS011;28991;52.028;5.526;2023-06-22T02:53:11;0.88;;;0.60;;
40288;SDS011;28991;52.028;5.526;2023-06-22T02:55:37;0.77;;;0.65;;
40288;SDS011;28991;52.028;5.526;2023-06-22T02:58:04;0.68;;;0.50;;
40288;SDS011;28991;52.028;5.526;2023-06-22T03:00:30;0.50;;;0.50;;
40288;SDS011;28991;52.028;5.526;2023-06-22T03:02:57;0.50;;;0.50;;
40288;SDS011;28991;52.028;5.526;2023-06-22T03:05:23;0.65;;;0.60;;
40288;SDS011;28991;52.028;5.526;2023-06-22T03:07:49;1.50;;;0.73;;
40288;SDS011;28991;52.028;5.526;2023-06-22T03:10:15;0.50;;;0.50;;
40288;SDS011;28991;52.028;5.526;2023-06-22T03:12:41;0.47;;;0.47;;
40288;SDS011;28991;52.028;5.526;2023-06-22T03:15:08;0.57;;;0.47;;
40288;SDS011;28991;52.028;5.526;2023-06-22T03:17:35;0.60;;;0.60;;
40288;SDS011;28991;52.028;5.526;2023-06-22T03:20:02;0.50;;;0.50;;
40288;SDS011;28991;52.028;5.526;2023-06-22T03:22:35;0.52;;;0.52;;
40288;SDS011;28991;52.028;5.526;2023-06-22T03:25:01;0.75;;;0.65;;
40288;SDS011;28991;52.028;5.526;2023-06-22T03:27:27;0.47;;;0.47;;
40288;SDS011;28991;52.028;5.526;2023-06-22T03:29:53;0.47;;;0.47;;
40288;SDS011;28991;52.028;5.526;2023-06-22T03:32:18;0.60;;;0.60;;
40288;SDS011;28991;52.028;5.526;2023-06-22T03:34:44;0.60;;;0.60;;
40288;SDS011;28991;52.028;5.526;2023-06-22T03:37:13;0.60;;;0.60;;
40288;SDS011;28991;52.028;5.526;2023-06-22T03:39:39;0.45;;;0.45;;
40288;SDS011;28991;52.028;5.526;2023-06-22T03:42:05;0.65;;;0.65;;
40288;SDS011;28991;52.028;5.526;2023-06-22T03:44:31;0.50;;;0.50;;
40288;SDS011;28991;52.028;5.526;2023-06-22T03:46:57;0.60;;;0.60;;
40288;SDS011;28991;52.028;5.526;2023-06-22T03:49:22;0.50;;;0.50;;
40288;SDS011;28991;52.028;5.526;2023-06-22T03:51:48;0.68;;;0.50;;
40288;SDS011;28991;52.028;5.526;2023-06-22T03:54:13;0.50;;;0.50;;
40288;SDS011;28991;52.028;5.526;2023-06-22T03:56:39;0.60;;;0.60;;
40288;SDS011;28991;52.028;5.526;2023-06-22T03:59:05;0.73;;;0.70;;
40288;SDS011;28991;52.028;5.526;2023-06-22T04:01:30;0.88;;;0.80;;
40288;SDS011;28991;52.028;5.526;2023-06-22T04:03:56;0.50;;;0.50;;
40288;SDS011;28991;52.028;5.526;2023-06-22T04:06:22;0.60;;;0.60;;
40288;SDS011;28991;52.028;5.526;2023-06-22T04:08:47;0.60;;;0.60;;
40288;SDS011;28991;52.028;5.526;2023-06-22T04:11:16;1.05;;;0.90;;
40288;SDS011;28991;52.028;5.526;2023-06-22T04:13:42;0.90;;;0.90;;
40288;SDS011;28991;52.028;5.526;2023-06-22T04:16:08;1.20;;;1.00;;
40288;SDS011;28991;52.028;5.526;2023-06-22T04:18:34;1.42;;;1.17;;
40288;SDS011;28991;52.028;5.526;2023-06-22T04:21:00;1.08;;;0.95;;
40288;SDS011;28991;52.028;5.526;2023-06-22T04:23:26;1.38;;;0.90;;
40288;SDS011;28991;52.028;5.526;2023-06-22T04:25:52;0.90;;;0.90;;
40288;SDS011;28991;52.028;5.526;2023-06-22T04:28:17;1.20;;;1.10;;
40288;SDS011;28991;52.028;5.526;2023-06-22T04:30:43;1.20;;;1.10;;
40288;SDS011;28991;52.028;5.526;2023-06-22T04:33:13;1.10;;;1.00;;
40288;SDS011;28991;52.028;5.526;2023-06-22T04:35:39;0.88;;;0.88;;
40288;SDS011;28991;52.028;5.526;2023-06-22T04:38:08;1.00;;;0.90;;
40288;SDS011;28991;52.028;5.526;2023-06-22T04:40:33;1.20;;;1.00;;
40288;SDS011;28991;52.028;5.526;2023-06-22T04:42:59;1.05;;;1.00;;
40288;SDS011;28991;52.028;5.526;2023-06-22T04:45:27;1.33;;;1.10;;
40288;SDS011;28991;52.028;5.526;2023-06-22T04:47:54;1.00;;;1.00;;
40288;SDS011;28991;52.028;5.526;2023-06-22T04:50:20;1.30;;;1.13;;
40288;SDS011;28991;52.028;5.526;2023-06-22T04:52:46;1.42;;;1.30;;
40288;SDS011;28991;52.028;5.526;2023-06-22T04:55:12;2.28;;;1.85;;
40288;SDS011;28991;52.028;5.526;2023-06-22T04:57:43;1.50;;;1.40;;
40288;SDS011;28991;52.028;5.526;2023-06-22T05:00:19;1.80;;;1.70;;
40288;SDS011;28991;52.028;5.526;2023-06-22T05:02:48;1.73;;;1.60;;
40288;SDS011;28991;52.028;5.526;2023-06-22T05:05:14;1.75;;;1.65;;
40288;SDS011;28991;52.028;5.526;2023-06-22T05:07:43;1.60;;;1.50;;
40288;SDS011;28991;52.028;5.526;2023-06-22T05:10:10;1.38;;;1.27;;
40288;SDS011;28991;52.028;5.526;2023-06-22T05:12:37;1.67;;;1.58;;
40288;SDS011;28991;52.028;5.526;2023-06-22T05:15:04;1.83;;;1.73;;
40288;SDS011;28991;52.028;5.526;2023-06-22T05:17:30;1.40;;;1.30;;
40288;SDS011;28991;52.028;5.526;2023-06-22T05:19:56;1.50;;;1.40;;
40288;SDS011;28991;52.028;5.526;2023-06-22T05:22:22;1.80;;;1.10;;
40288;SDS011;28991;52.028;5.526;2023-06-22T05:24:47;1.48;;;1.38;;
40288;SDS011;28991;52.028;5.526;2023-06-22T05:27:13;1.58;;;1.48;;
40288;SDS011;28991;52.028;5.526;2023-06-22T05:29:39;1.35;;;1.25;;
40288;SDS011;28991;52.028;5.526;2023-06-22T05:32:05;0.95;;;0.93;;
40288;SDS011;28991;52.028;5.526;2023-06-22T05:34:31;1.30;;;1.20;;
40288;SDS011;28991;52.028;5.526;2023-06-22T05:36:57;0.85;;;0.85;;
40288;SDS011;28991;52.028;5.526;2023-06-22T05:39:23;1.85;;;0.88;;
40288;SDS011;28991;52.028;5.526;2023-06-22T05:41:49;1.10;;;1.00;;
40288;SDS011;28991;52.028;5.526;2023-06-22T05:44:15;1.20;;;1.10;;
40288;SDS011;28991;52.028;5.526;2023-06-22T05:46:41;1.40;;;1.30;;
40288;SDS011;28991;52.028;5.526;2023-06-22T05:49:11;2.83;;;1.27;;
40288;SDS011;28991;52.028;5.526;2023-06-22T05:51:38;1.45;;;1.35;;
40288;SDS011;28991;52.028;5.526;2023-06-22T05:54:04;1.45;;;1.00;;
40288;SDS011;28991;52.028;5.526;2023-06-22T05:56:29;1.30;;;1.20;;
40288;SDS011;28991;52.028;5.526;2023-06-22T05:58:55;1.70;;;1.38;;
40288;SDS011;28991;52.028;5.526;2023-06-22T06:01:21;1.65;;;1.20;;
40288;SDS011;28991;52.028;5.526;2023-06-22T06:03:46;1.98;;;1.35;;
40288;SDS011;28991;52.028;5.526;2023-06-22T06:06:14;2.00;;;1.80;;
40288;SDS011;28991;52.028;5.526;2023-06-22T06:08:40;1.75;;;1.63;;
40288;SDS011;28991;52.028;5.526;2023-06-22T06:11:06;2.67;;;1.80;;
40288;SDS011;28991;52.028;5.526;2023-06-22T06:13:31;2.42;;;2.10;;
40288;SDS011;28991;52.028;5.526;2023-06-22T06:15:57;3.65;;;2.17;;
40288;SDS011;28991;52.028;5.526;2023-06-22T06:18:24;2.15;;;1.70;;
40288;SDS011;28991;52.028;5.526;2023-06-22T06:20:49;4.03;;;2.60;;
40288;SDS011;28991;52.028;5.526;2023-06-22T06:23:15;5.63;;;4.15;;
40288;SDS011;28991;52.028;5.526;2023-06-22T06:25:41;3.88;;;3.13;;
40288;SDS011;28991;52.028;5.526;2023-06-22T06:28:06;4.40;;;3.40;;
40288;SDS011;28991;52.028;5.526;2023-06-22T06:30:32;3.10;;;2.80;;
40288;SDS011;28991;52.028;5.526;2023-06-22T06:32:57;3.15;;;2.83;;
40288;SDS011;28991;52.028;5.526;2023-06-22T06:35:23;2.95;;;2.75;;
40288;SDS011;28991;52.028;5.526;2023-06-22T06:37:49;4.70;;;3.53;;
40288;SDS011;28991;52.028;5.526;2023-06-22T06:40:16;3.85;;;3.50;;
40288;SDS011;28991;52.028;5.526;2023-06-22T06:42:46;4.93;;;3.85;;
40288;SDS011;28991;52.028;5.526;2023-06-22T06:45:19;4.55;;;3.90;;
40288;SDS011;28991;52.028;5.526;2023-06-22T06:47:47;3.53;;;3.22;;
40288;SDS011;28991;52.028;5.526;2023-06-22T06:50:13;5.03;;;4.40;;
40288;SDS011;28991;52.028;5.526;2023-06-22T06:52:39;5.13;;;3.95;;
40288;SDS011;28991;52.028;5.526;2023-06-22T06:55:05;5.15;;;3.63;;
40288;SDS011;28991;52.028;5.526;2023-06-22T06:57:33;3.78;;;3.30;;
40288;SDS011;28991;52.028;5.526;2023-06-22T06:59:59;4.38;;;3.20;;
40288;SDS011;28991;52.028;5.526;2023-06-22T07:02:25;4.15;;;3.75;;
40288;SDS011;28991;52.028;5.526;2023-06-22T07:04:55;4.00;;;3.60;;
40288;SDS011;28991;52.028;5.526;2023-06-22T07:07:20;3.80;;;3.28;;
40288;SDS011;28991;52.028;5.526;2023-06-22T07:09:46;3.67;;;3.38;;
40288;SDS011;28991;52.028;5.526;2023-06-22T07:12:12;3.42;;;3.13;;
40288;SDS011;28991;52.028;5.526;2023-06-22T07:14:37;4.70;;;3.15;;
40288;SDS011;28991;52.028;5.526;2023-06-22T07:17:03;5.60;;;3.67;;
40288;SDS011;28991;52.028;5.526;2023-06-22T07:19:29;3.67;;;3.17;;
40288;SDS011;28991;52.028;5.526;2023-06-22T07:21:56;3.67;;;2.90;;
40288;SDS011;28991;52.028;5.526;2023-06-22T07:24:21;3.20;;;2.90;;
40288;SDS011;28991;52.028;5.526;2023-06-22T07:26:48;2.50;;;2.30;;
40288;SDS011;28991;52.028;5.526;2023-06-22T07:29:15;2.42;;;2.22;;
40288;SDS011;28991;52.028;5.526;2023-06-22T07:31:45;4.03;;;2.22;;
40288;SDS011;28991;52.028;5.526;2023-06-22T07:34:11;3.00;;;2.35;;
40288;SDS011;28991;52.028;5.526;2023-06-22T07:36:37;2.65;;;2.30;;
40288;SDS011;28991;52.028;5.526;2023-06-22T07:39:03;3.17;;;1.92;;
40288;SDS011;28991;52.028;5.526;2023-06-22T07:41:29;2.38;;;1.83;;
40288;SDS011;28991;52.028;5.526;2023-06-22T07:43:55;2.92;;;2.08;;
40288;SDS011;28991;52.028;5.526;2023-06-22T07:46:20;3.33;;;2.00;;
40288;SDS011;28991;52.028;5.526;2023-06-22T07:48:46;9.27;;;2.35;;
40288;SDS011;28991;52.028;5.526;2023-06-22T07:51:12;3.42;;;2.47;;
40288;SDS011;28991;52.028;5.526;2023-06-22T07:53:38;3.75;;;2.35;;
40288;SDS011;28991;52.028;5.526;2023-06-22T07:56:09;5.70;;;2.65;;
40288;SDS011;28991;52.028;5.526;2023-06-22T07:58:35;4.22;;;2.65;;
40288;SDS011;28991;52.028;5.526;2023-06-22T08:01:01;3.25;;;2.30;;
40288;SDS011;28991;52.028;5.526;2023-06-22T08:03:31;4.88;;;2.33;;
40288;SDS011;28991;52.028;5.526;2023-06-22T08:05:56;4.70;;;2.72;;
40288;SDS011;28991;52.028;5.526;2023-06-22T08:08:23;4.40;;;2.38;;
40288;SDS011;28991;52.028;5.526;2023-06-22T08:10:49;2.83;;;2.47;;
40288;SDS011;28991;52.028;5.526;2023-06-22T08:13:14;4.50;;;2.20;;
40288;SDS011;28991;52.028;5.526;2023-06-22T08:15:40;4.00;;;2.97;;
40288;SDS011;28991;52.028;5.526;2023-06-22T08:18:06;3.15;;;2.70;;
40288;SDS011;28991;52.028;5.526;2023-06-22T08:20:31;5.32;;;3.25;;
40288;SDS011;28991;52.028;5.526;2023-06-22T08:22:57;4.13;;;2.92;;
40288;SDS011;28991;52.028;5.526;2023-06-22T08:25:30;2.53;;;2.17;;
40288;SDS011;28991;52.028;5.526;2023-06-22T08:27:55;4.47;;;2.33;;
40288;SDS011;28991;52.028;5.526;2023-06-22T08:30:21;2.88;;;2.10;;
40288;SDS011;28991;52.028;5.526;2023-06-22T08:32:46;5.60;;;2.03;;
40288;SDS011;28991;52.028;5.526;2023-06-22T08:35:12;4.70;;;2.30;;
40288;SDS011;28991;52.028;5.526;2023-06-22T08:37:38;2.83;;;2.20;;
40288;SDS011;28991;52.028;5.526;2023-06-22T08:40:05;2.72;;;2.22;;
40288;SDS011;28991;52.028;5.526;2023-06-22T08:42:33;2.35;;;2.15;;
40288;SDS011;28991;52.028;5.526;2023-06-22T08:45:00;4.82;;;2.53;;
40288;SDS011;28991;52.028;5.526;2023-06-22T08:47:27;3.90;;;2.40;;
40288;SDS011;28991;52.028;5.526;2023-06-22T08:49:53;5.03;;;2.53;;
40288;SDS011;28991;52.028;5.526;2023-06-22T08:52:19;2.80;;;2.00;;
40288;SDS011;28991;52.028;5.526;2023-06-22T08:54:45;4.82;;;2.22;;
40288;SDS011;28991;52.028;5.526;2023-06-22T08:57:11;4.22;;;2.50;;
40288;SDS011;28991;52.028;5.526;2023-06-22T08:59:37;2.80;;;2.15;;
40288;SDS011;28991;52.028;5.526;2023-06-22T09:02:02;2.67;;;2.25;;
40288;SDS011;28991;52.028;5.526;2023-06-22T09:04:28;3.08;;;2.10;;
40288;SDS011;28991;52.028;5.526;2023-06-22T09:06:54;3.25;;;2.13;;
40288;SDS011;28991;52.028;5.526;2023-06-22T09:09:22;3.80;;;1.92;;
40288;SDS011;28991;52.028;5.526;2023-06-22T09:11:48;3.22;;;1.98;;
40288;SDS011;28991;52.028;5.526;2023-06-22T09:14:13;3.15;;;2.17;;
40288;SDS011;28991;52.028;5.526;2023-06-22T09:16:39;2.20;;;2.00;;
40288;SDS011;28991;52.028;5.526;2023-06-22T09:19:04;3.58;;;2.30;;
40288;SDS011;28991;52.028;5.526;2023-06-22T09:21:30;2.40;;;2.20;;
40288;SDS011;28991;52.028;5.526;2023-06-22T09:23:55;3.65;;;2.13;;
40288;SDS011;28991;52.028;5.526;2023-06-22T09:26:21;4.65;;;2.50;;
40288;SDS011;28991;52.028;5.526;2023-06-22T09:28:48;1.90;;;1.80;;
40288;SDS011;28991;52.028;5.526;2023-06-22T09:31:14;2.38;;;2.00;;
40288;SDS011;28991;52.028;5.526;2023-06-22T09:33:41;3.38;;;2.03;;
40288;SDS011;28991;52.028;5.526;2023-06-22T09:36:07;1.77;;;1.60;;
40288;SDS011;28991;52.028;5.526;2023-06-22T09:38:38;2.85;;;2.17;;
40288;SDS011;28991;52.028;5.526;2023-06-22T09:41:04;4.18;;;2.50;;
40288;SDS011;28991;52.028;5.526;2023-06-22T09:43:31;4.70;;;2.97;;
40288;SDS011;28991;52.028;5.526;2023-06-22T09:45:59;2.70;;;2.17;;
40288;SDS011;28991;52.028;5.526;2023-06-22T09:48:26;3.67;;;2.65;;
40288;SDS011;28991;52.028;5.526;2023-06-22T09:50:52;4.45;;;2.58;;
40288;SDS011;28991;52.028;5.526;2023-06-22T09:53:17;2.70;;;2.22;;
40288;SDS011;28991;52.028;5.526;2023-06-22T09:55:43;2.70;;;2.10;;
40288;SDS011;28991;52.028;5.526;2023-06-22T09:58:08;2.53;;;2.15;;
40288;SDS011;28991;52.028;5.526;2023-06-22T10:00:35;3.95;;;2.03;;
40288;SDS011;28991;52.028;5.526;2023-06-22T10:03:00;4.18;;;2.08;;
40288;SDS011;28991;52.028;5.526;2023-06-22T10:05:26;6.85;;;2.72;;
40288;SDS011;28991;52.028;5.526;2023-06-22T10:07:51;3.55;;;2.72;;
40288;SDS011;28991;52.028;5.526;2023-06-22T10:10:17;2.50;;;2.03;;
40288;SDS011;28991;52.028;5.526;2023-06-22T10:12:46;4.50;;;2.00;;
40288;SDS011;28991;52.028;5.526;2023-06-22T10:15:13;3.13;;;2.22;;
40288;SDS011;28991;52.028;5.526;2023-06-22T10:17:39;3.42;;;2.30;;
40288;SDS011;28991;52.028;5.526;2023-06-22T10:20:06;1.90;;;1.80;;
40288;SDS011;28991;52.028;5.526;2023-06-22T10:22:38;2.63;;;1.98;;
40288;SDS011;28991;52.028;5.526;2023-06-22T10:25:05;3.67;;;2.03;;
40288;SDS011;28991;52.028;5.526;2023-06-22T10:27:32;2.38;;;2.17;;
40288;SDS011;28991;52.028;5.526;2023-06-22T10:29:57;2.40;;;1.90;;
40288;SDS011;28991;52.028;5.526;2023-06-22T10:32:23;3.30;;;1.70;;
40288;SDS011;28991;52.028;5.526;2023-06-22T10:34:48;3.35;;;2.30;;
40288;SDS011;28991;52.028;5.526;2023-06-22T10:37:14;2.38;;;2.17;;
40288;SDS011;28991;52.028;5.526;2023-06-22T10:39:40;5.72;;;2.22;;
40288;SDS011;28991;52.028;5.526;2023-06-22T10:42:05;2.17;;;1.98;;
40288;SDS011;28991;52.028;5.526;2023-06-22T10:44:34;2.83;;;2.13;;
40288;SDS011;28991;52.028;5.526;2023-06-22T10:47:00;5.47;;;2.00;;
40288;SDS011;28991;52.028;5.526;2023-06-22T10:49:25;2.58;;;2.38;;
40288;SDS011;28991;52.028;5.526;2023-06-22T10:51:51;3.00;;;2.10;;
40288;SDS011;28991;52.028;5.526;2023-06-22T10:54:16;2.72;;;2.40;;
40288;SDS011;28991;52.028;5.526;2023-06-22T10:56:44;3.22;;;2.90;;
40288;SDS011;28991;52.028;5.526;2023-06-22T10:59:09;4.03;;;2.50;;
40288;SDS011;28991;52.028;5.526;2023-06-22T11:01:35;3.47;;;2.40;;
40288;SDS011;28991;52.028;5.526;2023-06-22T11:04:02;3.28;;;2.55;;
40288;SDS011;28991;52.028;5.526;2023-06-22T11:06:28;4.03;;;2.55;;
40288;SDS011;28991;52.028;5.526;2023-06-22T11:08:53;3.42;;;2.47;;
40288;SDS011;28991;52.028;5.526;2023-06-22T11:11:19;2.47;;;2.25;;
40288;SDS011;28991;52.028;5.526;2023-06-22T11:13:44;2.65;;;2.45;;
40288;SDS011;28991;52.028;5.526;2023-06-22T11:16:10;3.55;;;1.95;;
40288;SDS011;28991;52.028;5.526;2023-06-22T11:18:36;3.03;;;2.33;;
40288;SDS011;28991;52.028;5.526;2023-06-22T11:21:01;2.55;;;2.35;;
40288;SDS011;28991;52.028;5.526;2023-06-22T11:23:27;2.58;;;2.13;;
40288;SDS011;28991;52.028;5.526;2023-06-22T11:25:53;2.92;;;1.90;;
40288;SDS011;28991;52.028;5.526;2023-06-22T11:28:19;2.75;;;2.47;;
40288;SDS011;28991;52.028;5.526;2023-06-22T11:30:45;3.90;;;2.00;;
40288;SDS011;28991;52.028;5.526;2023-06-22T11:33:11;6.00;;;2.05;;
40288;SDS011;28991;52.028;5.526;2023-06-22T11:35:36;2.30;;;2.10;;
40288;SDS011;28991;52.028;5.526;2023-06-22T11:38:02;3.88;;;2.65;;
40288;SDS011;28991;52.028;5.526;2023-06-22T11:40:29;4.90;;;3.10;;
40288;SDS011;28991;52.028;5.526;2023-06-22T11:42:54;3.08;;;2.70;;
40288;SDS011;28991;52.028;5.526;2023-06-22T11:45:20;2.20;;;2.00;;
40288;SDS011;28991;52.028;5.526;2023-06-22T11:47:46;2.45;;;2.25;;
40288;SDS011;28991;52.028;5.526;2023-06-22T11:50:12;2.80;;;2.30;;
40288;SDS011;28991;52.028;5.526;2023-06-22T11:52:37;2.67;;;2.40;;
40288;SDS011;28991;52.028;5.526;2023-06-22T11:55:03;2.50;;;2.30;;
40288;SDS011;28991;52.028;5.526;2023-06-22T11:57:32;3.30;;;2.42;;
40288;SDS011;28991;52.028;5.526;2023-06-22T11:59:58;4.53;;;2.65;;
40288;SDS011;28991;52.028;5.526;2023-06-22T12:02:24;2.30;;;2.17;;
40288;SDS011;28991;52.028;5.526;2023-06-22T12:04:49;3.33;;;2.28;;
40288;SDS011;28991;52.028;5.526;2023-06-22T12:07:17;4.90;;;2.78;;
40288;SDS011;28991;52.028;5.526;2023-06-22T12:09:43;4.57;;;3.20;;
40288;SDS011;28991;52.028;5.526;2023-06-22T12:12:09;4.95;;;2.80;;
40288;SDS011;28991;52.028;5.526;2023-06-22T12:14:34;2.67;;;2.22;;
40288;SDS011;28991;52.028;5.526;2023-06-22T12:17:00;6.93;;;2.80;;
40288;SDS011;28991;52.028;5.526;2023-06-22T12:19:26;6.72;;;2.67;;
40288;SDS011;28991;52.028;5.526;2023-06-22T12:21:52;2.22;;;2.03;;
40288;SDS011;28991;52.028;5.526;2023-06-22T12:24:17;2.40;;;2.08;;
40288;SDS011;28991;52.028;5.526;2023-06-22T12:26:43;2.20;;;2.00;;
40288;SDS011;28991;52.028;5.526;2023-06-22T12:29:09;5.00;;;2.42;;
40288;SDS011;28991;52.028;5.526;2023-06-22T12:31:35;2.53;;;1.92;;
40288;SDS011;28991;52.028;5.526;2023-06-22T12:34:03;3.35;;;2.05;;
40288;SDS011;28991;52.028;5.526;2023-06-22T12:36:29;2.70;;;2.13;;
40288;SDS011;28991;52.028;5.526;2023-06-22T12:38:54;3.78;;;2.47;;
40288;SDS011;28991;52.028;5.526;2023-06-22T12:41:20;2.63;;;2.17;;
40288;SDS011;28991;52.028;5.526;2023-06-22T12:43:46;4.80;;;2.83;;
40288;SDS011;28991;52.028;5.526;2023-06-22T12:46:11;3.78;;;2.70;;
40288;SDS011;28991;52.028;5.526;2023-06-22T12:48:37;3.28;;;2.60;;
40288;SDS011;28991;52.028;5.526;2023-06-22T12:51:07;2.40;;;2.20;;
40288;SDS011;28991;52.028;5.526;2023-06-22T12:53:33;3.78;;;2.85;;
40288;SDS011;28991;52.028;5.526;2023-06-22T12:55:59;3.10;;;2.17;;
40288;SDS011;28991;52.028;5.526;2023-06-22T12:58:25;4.47;;;2.15;;
40288;SDS011;28991;52.028;5.526;2023-06-22T13:00:50;2.28;;;2.08;;
40288;SDS011;28991;52.028;5.526;2023-06-22T13:03:16;2.53;;;2.20;;
40288;SDS011;28991;52.028;5.526;2023-06-22T13:05:41;4.03;;;2.53;;
40288;SDS011;28991;52.028;5.526;2023-06-22T13:08:07;2.50;;;2.30;;
40288;SDS011;28991;52.028;5.526;2023-06-22T13:10:33;5.47;;;2.38;;
40288;SDS011;28991;52.028;5.526;2023-06-22T13:12:59;2.78;;;2.30;;
40288;SDS011;28991;52.028;5.526;2023-06-22T13:15:28;1.92;;;1.73;;
40288;SDS011;28991;52.028;5.526;2023-06-22T13:17:55;4.40;;;2.15;;
40288;SDS011;28991;52.028;5.526;2023-06-22T13:20:20;4.55;;;2.53;;
40288;SDS011;28991;52.028;5.526;2023-06-22T13:22:46;3.08;;;2.45;;
40288;SDS011;28991;52.028;5.526;2023-06-22T13:25:12;2.60;;;2.17;;
40288;SDS011;28991;52.028;5.526;2023-06-22T13:27:41;2.38;;;1.90;;
40288;SDS011;28991;52.028;5.526;2023-06-22T13:30:07;3.75;;;2.60;;
40288;SDS011;28991;52.028;5.526;2023-06-22T13:32:33;3.40;;;3.10;;
40288;SDS011;28991;52.028;5.526;2023-06-22T13:34:59;4.55;;;3.58;;
40288;SDS011;28991;52.028;5.526;2023-06-22T13:37:25;4.40;;;3.42;;
40288;SDS011;28991;52.028;5.526;2023-06-22T13:39:51;5.30;;;3.00;;
40288;SDS011;28991;52.028;5.526;2023-06-22T13:42:17;3.58;;;2.88;;
40288;SDS011;28991;52.028;5.526;2023-06-22T13:44:42;3.65;;;2.67;;
40288;SDS011;28991;52.028;5.526;2023-06-22T13:47:08;3.08;;;2.78;;
40288;SDS011;28991;52.028;5.526;2023-06-22T13:49:34;3.25;;;2.40;;
40288;SDS011;28991;52.028;5.526;2023-06-22T13:51:59;2.92;;;2.40;;
40288;SDS011;28991;52.028;5.526;2023-06-22T13:54:25;5.43;;;2.33;;
40288;SDS011;28991;52.028;5.526;2023-06-22T13:56:51;2.28;;;2.08;;
40288;SDS011;28991;52.028;5.526;2023-06-22T13:59:16;2.25;;;2.05;;
40288;SDS011;28991;52.028;5.526;2023-06-22T14:01:42;2.92;;;2.38;;
40288;SDS011;28991;52.028;5.526;2023-06-22T14:04:08;3.28;;;2.90;;
40288;SDS011;28991;52.028;5.526;2023-06-22T14:06:34;3.17;;;2.33;;
40288;SDS011;28991;52.028;5.526;2023-06-22T14:08:59;3.92;;;2.45;;
40288;SDS011;28991;52.028;5.526;2023-06-22T14:11:25;1.83;;;1.73;;
40288;SDS011;28991;52.028;5.526;2023-06-22T14:13:50;2.47;;;1.88;;
40288;SDS011;28991;52.028;5.526;2023-06-22T14:16:16;2.85;;;1.83;;
40288;SDS011;28991;52.028;5.526;2023-06-22T14:18:42;1.80;;;1.50;;
40288;SDS011;28991;52.028;5.526;2023-06-22T14:21:08;1.67;;;1.58;;
40288;SDS011;28991;52.028;5.526;2023-06-22T14:23:33;1.60;;;1.50;;
40288;SDS011;28991;52.028;5.526;2023-06-22T14:25:59;1.60;;;1.50;;
40288;SDS011;28991;52.028;5.526;2023-06-22T14:28:24;2.20;;;1.50;;
40288;SDS011;28991;52.028;5.526;2023-06-22T14:30:50;1.88;;;1.70;;
40288;SDS011;28991;52.028;5.526;2023-06-22T14:33:15;2.03;;;1.45;;
40288;SDS011;28991;52.028;5.526;2023-06-22T14:35:41;1.90;;;1.67;;
40288;SDS011;28991;52.028;5.526;2023-06-22T14:38:07;2.10;;;1.80;;
40288;SDS011;28991;52.028;5.526;2023-06-22T14:40:32;1.95;;;1.48;;
40288;SDS011;28991;52.028;5.526;2023-06-22T14:42:58;2.55;;;1.85;;
40288;SDS011;28991;52.028;5.526;2023-06-22T14:45:23;1.67;;;1.48;;
40288;SDS011;28991;52.028;5.526;2023-06-22T14:47:49;3.10;;;1.40;;
40288;SDS011;28991;52.028;5.526;2023-06-22T14:50:15;2.65;;;1.80;;